Time;durP1;ratioP1;P1;durP2;ratioP2;P2;SDS_P1;SDS_P2;PMS_P1;PMS_P2;Temp;Humidity;BMP_temperature;BMP_pressure;BME280_temperature;BME280_humidity;BME280_pressure;Samples;Min_cycle;Max_cycle;Signal;HPM_P1;HPM_P2
2021/12/15 00:00:56;;;;;;;30.33;28.43;;;;;;;;;;5092325;28;20255;-73
2021/12/15 00:03:22;;;;;;;28.97;27.57;;;;;;;;;;5092385;28;20250;-72
2021/12/15 00:05:51;;;;;;;27.90;26.60;;;;;;;;;;5092151;28;20311;-73
2021/12/15 00:08:18;;;;;;;27.10;25.80;;;;;;;;;;5092019;28;20228;-73
2021/12/15 00:10:46;;;;;;;29.07;27.17;;;;;;;;;;5092033;28;20189;-74
2021/12/15 00:13:14;;;;;;;25.87;24.57;;;;;;;;;;5092080;28;20194;-72
2021/12/15 00:15:41;;;;;;;31.53;29.33;;;;;;;;;;5092255;28;20193;-72
2021/12/15 00:18:08;;;;;;;28.47;27.17;;;;;;;;;;5092309;28;20202;-73
2021/12/15 00:20:35;;;;;;;27.00;25.70;;;;;;;;;;5092233;28;20281;-73
2021/12/15 00:23:03;;;;;;;26.27;25.07;;;;;;;;;;5092345;28;20198;-74
2021/12/15 00:25:32;;;;;;;26.97;25.67;;;;;;;;;;5092258;28;20255;-73
2021/12/15 00:27:59;;;;;;;28.43;27.03;;;;;;;;;;5092315;28;20221;-72
2021/12/15 00:30:26;;;;;;;32.53;30.53;;;;;;;;;;5091862;28;20284;-72
2021/12/15 00:32:53;;;;;;;30.73;29.13;;;;;;;;;;5091855;28;20251;-73
2021/12/15 00:35:20;;;;;;;31.23;29.63;;;;;;;;;;5091857;28;20738;-73
2021/12/15 00:37:47;;;;;;;32.97;31.07;;;;;;;;;;5091860;28;20193;-73
2021/12/15 00:40:17;;;;;;;33.73;31.80;;;;;;;;;;5092208;28;20198;-75
2021/12/15 00:42:44;;;;;;;33.63;31.17;;;;;;;;;;5091853;28;20255;-74
2021/12/15 00:45:12;;;;;;;33.23;31.07;;;;;;;;;;5091969;28;20288;-74
2021/12/15 00:47:39;;;;;;;23.10;21.97;;;;;;;;;;5091702;28;20251;-74
2021/12/15 00:50:07;;;;;;;30.77;29.07;;;;;;;;;;5092017;28;20209;-72
2021/12/15 00:52:34;;;;;;;29.57;28.17;;;;;;;;;;5092027;28;20193;-73
2021/12/15 00:55:00;;;;;;;22.27;21.27;;;;;;;;;;5091692;28;20637;-75
2021/12/15 00:57:29;;;;;;;24.03;22.93;;;;;;;;;;5091615;28;20251;-73
2021/12/15 00:59:55;;;;;;;21.93;20.93;;;;;;;;;;5091990;28;20724;-73
2021/12/15 01:02:22;;;;;;;22.93;21.83;;;;;;;;;;5091967;28;20194;-74
2021/12/15 01:04:49;;;;;;;21.70;20.70;;;;;;;;;;5091445;28;20287;-74
2021/12/15 01:07:17;;;;;;;19.53;18.73;;;;;;;;;;5091875;28;20233;-73
2021/12/15 01:09:46;;;;;;;21.97;20.70;;;;;;;;;;5091477;28;20637;-73
2021/12/15 01:12:24;;;;;;;25.23;23.93;;;;;;;;;;5093138;28;20627;-73
2021/12/15 01:20:24;;;;;;;31.67;30.17;;;;;;;;;;5095483;28;20176;-73
2021/12/15 01:22:52;;;;;;;31.37;29.87;;;;;;;;;;5095302;28;20229;-73
2021/12/15 01:25:22;;;;;;;34.07;31.97;;;;;;;;;;5095013;28;20194;-73
2021/12/15 01:27:49;;;;;;;30.27;28.77;;;;;;;;;;5095085;28;20272;-73
2021/12/15 01:30:20;;;;;;;32.17;30.37;;;;;;;;;;5094813;28;20202;-73
2021/12/15 01:32:47;;;;;;;32.13;30.43;;;;;;;;;;5095876;28;20198;-72
2021/12/15 01:35:15;;;;;;;29.93;28.53;;;;;;;;;;5094811;28;20216;-77
2021/12/15 01:37:42;;;;;;;29.77;28.27;;;;;;;;;;5095041;28;20247;-75
2021/12/15 01:40:11;;;;;;;27.20;25.97;;;;;;;;;;5094959;28;20194;-75
2021/12/15 01:42:38;;;;;;;25.07;23.90;;;;;;;;;;5094939;28;20281;-73
2021/12/15 01:48:00;;;;;;;28.73;27.33;;;;;;;;;;5094854;28;20212;-73
2021/12/15 01:50:26;;;;;;;30.53;29.03;;;;;;;;;;5094774;28;20225;-75
2021/12/15 01:52:53;;;;;;;24.87;23.77;;;;;;;;;;5094737;28;20198;-74
2021/12/15 01:55:21;;;;;;;29.13;27.70;;;;;;;;;;5094329;28;20293;-73
2021/12/15 01:57:47;;;;;;;27.10;25.50;;;;;;;;;;5094719;28;20244;-76
2021/12/15 02:00:16;;;;;;;25.23;24.10;;;;;;;;;;5094591;28;20272;-74
2021/12/15 02:02:42;;;;;;;26.77;25.43;;;;;;;;;;5094258;28;20189;-73
2021/12/15 02:05:11;;;;;;;23.17;22.10;;;;;;;;;;5094059;28;20328;-74
2021/12/15 02:07:39;;;;;;;24.10;23.07;;;;;;;;;;5094420;28;20193;-74
2021/12/15 02:10:07;;;;;;;24.87;23.67;;;;;;;;;;5094394;28;20764;-73
2021/12/15 02:12:37;;;;;;;26.40;25.20;;;;;;;;;;5094639;28;20198;-74
2021/12/15 02:15:06;;;;;;;27.20;25.80;;;;;;;;;;5094924;28;20198;-73
2021/12/15 02:17:33;;;;;;;27.97;26.57;;;;;;;;;;5093980;28;20251;-73
2021/12/15 02:20:00;;;;;;;26.83;25.43;;;;;;;;;;5094277;28;20262;-73
2021/12/15 02:22:29;;;;;;;26.07;24.80;;;;;;;;;;5094131;28;20229;-73
2021/12/15 02:24:56;;;;;;;28.30;26.80;;;;;;;;;;5093808;28;20198;-75
2021/12/15 02:27:30;;;;;;;27.50;26.10;;;;;;;;;;5094123;28;20247;-74
2021/12/15 02:30:03;;;;;;;27.53;25.93;;;;;;;;;;5094219;28;20217;-73
2021/12/15 02:32:39;;;;;;;25.87;24.67;;;;;;;;;;5093739;28;20197;-73
2021/12/15 02:37:52;;;;;;;25.23;24.03;;;;;;;;;;5094258;28;20181;-75
2021/12/15 02:40:19;;;;;;;24.73;23.63;;;;;;;;;;5093860;28;20197;-74
2021/12/15 02:42:48;;;;;;;25.60;24.30;;;;;;;;;;5093809;28;20229;-74
2021/12/15 02:45:17;;;;;;;23.87;22.77;;;;;;;;;;5093740;28;20648;-75
2021/12/15 02:47:44;;;;;;;26.73;25.03;;;;;;;;;;5093743;28;20668;-74
2021/12/15 02:50:12;;;;;;;22.03;21.03;;;;;;;;;;5093542;28;20226;-74
2021/12/15 02:52:39;;;;;;;26.10;24.67;;;;;;;;;;5093659;28;20621;-73
2021/12/15 02:55:09;;;;;;;28.97;26.93;;;;;;;;;;5093613;28;20194;-75
2021/12/15 02:57:36;;;;;;;24.67;23.27;;;;;;;;;;5093892;28;20787;-74
2021/12/15 03:00:15;;;;;;;25.27;23.87;;;;;;;;;;5093598;28;20205;-77
2021/12/15 03:03:14;;;;;;;23.60;22.57;;;;;;;;;;5093494;28;20185;-73
2021/12/15 03:05:45;;;;;;;25.37;24.07;;;;;;;;;;5092941;28;20649;-74
2021/12/15 03:08:16;;;;;;;25.43;23.93;;;;;;;;;;5093406;28;20193;-78
2021/12/15 03:16:13;;;;;;;26.37;25.07;;;;;;;;;;5093317;28;20554;-76
2021/12/15 03:18:40;;;;;;;26.67;25.37;;;;;;;;;;5093095;28;20198;-79
2021/12/15 03:21:08;;;;;;;27.60;25.93;;;;;;;;;;5093165;28;20194;-76
2021/12/15 03:23:38;;;;;;;26.50;25.27;;;;;;;;;;5092980;28;20194;-77
2021/12/15 03:26:06;;;;;;;29.47;27.97;;;;;;;;;;5092993;28;20228;-79
2021/12/15 03:37:06;;;;;;;26.87;25.30;;;;;;;;;;5078740;28;20198;-77
2021/12/15 03:39:34;;;;;;;23.23;22.23;;;;;;;;;;5092570;28;20201;-78
2021/12/15 03:42:06;;;;;;;24.17;23.07;;;;;;;;;;5092487;28;20215;-79
2021/12/15 03:44:34;;;;;;;25.53;24.00;;;;;;;;;;5093126;28;20186;-76
2021/12/15 03:47:01;;;;;;;25.83;24.23;;;;;;;;;;5092416;28;20722;-75
2021/12/15 03:49:27;;;;;;;25.00;23.30;;;;;;;;;;5093245;28;20226;-77
2021/12/15 03:51:54;;;;;;;22.87;21.87;;;;;;;;;;5093008;28;20233;-75
2021/12/15 03:54:21;;;;;;;24.40;23.07;;;;;;;;;;5092669;28;20647;-76
2021/12/15 03:56:49;;;;;;;23.93;22.83;;;;;;;;;;5092646;28;20696;-76
2021/12/15 03:59:19;;;;;;;22.47;21.47;;;;;;;;;;5092349;28;20290;-75
2021/12/15 04:01:46;;;;;;;25.77;24.47;;;;;;;;;;5092629;28;20208;-75
2021/12/15 04:04:12;;;;;;;24.27;23.17;;;;;;;;;;5092223;28;20275;-76
2021/12/15 04:06:41;;;;;;;31.30;28.50;;;;;;;;;;5092756;28;20198;-76
2021/12/15 04:09:09;;;;;;;29.77;27.50;;;;;;;;;;5092058;28;20274;-76
2021/12/15 04:11:36;;;;;;;25.20;23.90;;;;;;;;;;5092088;28;20255;-78
2021/12/15 04:14:09;;;;;;;25.90;24.50;;;;;;;;;;5092462;28;20619;-77
2021/12/15 04:16:46;;;;;;;28.53;26.63;;;;;;;;;;5092348;28;20225;-77
2021/12/15 04:19:14;;;;;;;26.97;25.67;;;;;;;;;;5092658;28;20281;-76
2021/12/15 04:21:41;;;;;;;25.70;24.40;;;;;;;;;;5093464;28;20194;-76
2021/12/15 04:24:08;;;;;;;23.37;22.23;;;;;;;;;;5094457;28;20201;-76
2021/12/15 04:26:35;;;;;;;23.27;22.17;;;;;;;;;;5093795;28;20227;-76
2021/12/15 04:29:03;;;;;;;25.73;24.50;;;;;;;;;;5094399;28;20229;-76
2021/12/15 04:31:32;;;;;;;27.57;26.03;;;;;;;;;;5095748;28;20202;-79
2021/12/15 04:34:01;;;;;;;24.87;23.50;;;;;;;;;;5093715;28;20660;-75
2021/12/15 04:36:29;;;;;;;26.70;25.20;;;;;;;;;;5095859;28;20201;-76
2021/12/15 04:38:57;;;;;;;25.67;24.37;;;;;;;;;;5094156;28;20660;-77
2021/12/15 04:41:24;;;;;;;21.23;20.27;;;;;;;;;;5096578;28;20647;-77
2021/12/15 04:43:57;;;;;;;24.27;23.07;;;;;;;;;;5095212;28;20713;-85
2021/12/15 04:46:25;;;;;;;21.53;20.53;;;;;;;;;;5093784;28;20182;-79
2021/12/15 04:48:51;;;;;;;21.77;20.60;;;;;;;;;;5096929;28;20193;-77
2021/12/15 04:51:20;;;;;;;22.60;21.50;;;;;;;;;;5096578;28;20202;-77
2021/12/15 04:53:47;;;;;;;21.50;20.50;;;;;;;;;;5097251;28;20247;-79
2021/12/15 04:56:14;;;;;;;22.87;21.87;;;;;;;;;;5096471;28;20193;-80
2021/12/15 04:58:41;;;;;;;25.17;22.97;;;;;;;;;;5096512;28;20197;-76
2021/12/15 05:01:10;;;;;;;25.07;23.87;;;;;;;;;;5095837;28;20740;-77
2021/12/15 05:03:38;;;;;;;21.73;20.53;;;;;;;;;;5095628;28;20193;-78
2021/12/15 05:06:05;;;;;;;23.07;21.77;;;;;;;;;;5095964;28;20217;-77
2021/12/15 05:08:33;;;;;;;25.47;23.73;;;;;;;;;;5095945;28;20272;-78
2021/12/15 05:11:00;;;;;;;21.20;20.20;;;;;;;;;;5095727;28;20229;-77
2021/12/15 05:13:28;;;;;;;23.67;22.30;;;;;;;;;;5095687;28;20193;-77
2021/12/15 05:15:55;;;;;;;24.50;22.90;;;;;;;;;;5095407;28;20671;-81
2021/12/15 05:18:22;;;;;;;22.57;21.47;;;;;;;;;;5095336;28;20281;-77
2021/12/15 05:20:52;;;;;;;21.90;20.70;;;;;;;;;;5093927;28;20189;-78
2021/12/15 05:23:19;;;;;;;27.23;25.33;;;;;;;;;;5095801;28;20186;-79
2021/12/15 05:25:47;;;;;;;25.50;23.77;;;;;;;;;;5095358;28;20200;-77
2021/12/15 05:28:14;;;;;;;23.33;22.13;;;;;;;;;;5095001;28;20216;-77
2021/12/15 05:30:41;;;;;;;23.33;22.23;;;;;;;;;;5095193;28;20257;-78
2021/12/15 05:33:08;;;;;;;30.83;29.13;;;;;;;;;;5095116;28;20233;-77
2021/12/15 05:35:36;;;;;;;23.33;22.13;;;;;;;;;;5095164;28;20236;-77
2021/12/15 05:38:04;;;;;;;22.03;20.97;;;;;;;;;;5095134;28;20620;-77
2021/12/15 05:40:31;;;;;;;23.83;22.40;;;;;;;;;;5095049;28;20227;-80
2021/12/15 05:43:00;;;;;;;25.53;23.87;;;;;;;;;;5094649;28;20230;-77
2021/12/15 05:45:27;;;;;;;19.93;19.03;;;;;;;;;;5094996;28;20221;-78
2021/12/15 05:47:54;;;;;;;21.03;20.03;;;;;;;;;;5095144;28;20239;-78
2021/12/15 05:50:21;;;;;;;24.13;22.87;;;;;;;;;;5094741;28;20320;-78
2021/12/15 05:52:48;;;;;;;22.17;21.00;;;;;;;;;;5095890;28;20198;-77
2021/12/15 05:55:15;;;;;;;22.17;21.17;;;;;;;;;;5094527;28;20198;-80
2021/12/15 05:57:42;;;;;;;23.17;22.03;;;;;;;;;;5094606;28;20198;-77
2021/12/15 06:00:12;;;;;;;23.70;22.50;;;;;;;;;;5094630;28;20656;-77
2021/12/15 06:02:39;;;;;;;27.03;25.37;;;;;;;;;;5094885;28;20190;-77
2021/12/15 06:05:06;;;;;;;24.00;22.80;;;;;;;;;;5094023;28;20613;-78
2021/12/15 06:07:33;;;;;;;22.50;21.40;;;;;;;;;;5094206;28;20194;-79
2021/12/15 06:10:00;;;;;;;24.07;22.87;;;;;;;;;;5095013;28;20221;-78
2021/12/15 06:12:28;;;;;;;24.63;23.33;;;;;;;;;;5094454;28;20189;-79
2021/12/15 06:14:55;;;;;;;25.53;24.13;;;;;;;;;;5094402;28;20197;-78
2021/12/15 06:17:25;;;;;;;23.90;22.70;;;;;;;;;;5094227;28;20224;-77
2021/12/15 06:19:52;;;;;;;24.00;22.80;;;;;;;;;;5094005;28;20610;-79
2021/12/15 06:22:24;;;;;;;22.60;21.50;;;;;;;;;;5094220;28;20686;-77
2021/12/15 06:24:51;;;;;;;28.87;26.60;;;;;;;;;;5093890;28;20272;-78
2021/12/15 06:27:20;;;;;;;25.67;23.83;;;;;;;;;;5093897;28;20197;-79
2021/12/15 06:29:47;;;;;;;25.47;24.27;;;;;;;;;;5093708;28;20225;-77
2021/12/15 06:32:14;;;;;;;22.53;21.47;;;;;;;;;;5094067;28;20197;-79
2021/12/15 06:34:42;;;;;;;23.70;22.30;;;;;;;;;;5093764;28;20190;-78
2021/12/15 06:37:10;;;;;;;23.83;22.73;;;;;;;;;;5093653;28;20251;-80
2021/12/15 06:39:37;;;;;;;25.63;24.00;;;;;;;;;;5093925;28;20240;-77
2021/12/15 06:42:04;;;;;;;26.90;24.90;;;;;;;;;;5093588;28;20190;-78
2021/12/15 06:44:31;;;;;;;23.73;22.43;;;;;;;;;;5094028;28;20194;-78
2021/12/15 06:58:12;;;;;;;23.03;21.93;;;;;;;;;;5012218;28;20216;-78
2021/12/15 07:00:40;;;;;;;26.13;24.73;;;;;;;;;;5056635;28;20207;-78
2021/12/15 07:03:07;;;;;;;24.70;23.17;;;;;;;;;;5093466;28;20198;-78
2021/12/15 07:05:35;;;;;;;24.30;22.90;;;;;;;;;;5093184;28;20288;-78
2021/12/15 07:08:06;;;;;;;28.20;26.43;;;;;;;;;;5093041;28;20201;-77
2021/12/15 07:10:34;;;;;;;24.43;23.13;;;;;;;;;;5092227;28;20235;-78
2021/12/15 07:13:01;;;;;;;25.00;23.80;;;;;;;;;;5093256;28;20273;-78
2021/12/15 07:15:28;;;;;;;24.30;23.20;;;;;;;;;;5093223;28;20194;-79
2021/12/15 07:18:01;;;;;;;27.20;25.73;;;;;;;;;;5093183;28;20194;-78
2021/12/15 07:20:37;;;;;;;29.00;27.37;;;;;;;;;;5092820;28;20182;-78
2021/12/15 07:23:07;;;;;;;27.03;25.33;;;;;;;;;;5092830;28;20225;-78
2021/12/15 07:25:34;;;;;;;27.00;25.50;;;;;;;;;;5093044;28;20190;-78
2021/12/15 07:28:01;;;;;;;17.53;16.83;;;;;;;;;;5092751;28;20648;-79
2021/12/15 07:30:27;;;;;;;20.87;19.87;;;;;;;;;;5092613;28;20226;-78
2021/12/15 07:32:55;;;;;;;20.80;19.57;;;;;;;;;;5093138;28;20271;-77
2021/12/15 07:35:21;;;;;;;19.33;18.43;;;;;;;;;;5092873;28;20193;-78
2021/12/15 07:37:48;;;;;;;19.57;18.67;;;;;;;;;;5092796;28;20228;-78
2021/12/15 07:40:20;;;;;;;21.03;19.77;;;;;;;;;;5092468;28;20662;-77
2021/12/15 07:43:04;;;;;;;19.23;18.33;;;;;;;;;;5092812;28;20265;-79
2021/12/15 07:45:32;;;;;;;19.80;18.90;;;;;;;;;;5092520;28;20235;-78
2021/12/15 07:48:01;;;;;;;20.93;19.93;;;;;;;;;;5092395;28;20198;-78
2021/12/15 07:50:28;;;;;;;21.57;20.57;;;;;;;;;;5092300;28;20316;-77
2021/12/15 07:52:55;;;;;;;24.43;23.23;;;;;;;;;;5092653;28;20189;-78
2021/12/15 07:55:25;;;;;;;22.17;21.10;;;;;;;;;;5092282;28;20247;-79
2021/12/15 07:57:52;;;;;;;24.60;22.77;;;;;;;;;;5092580;28;20229;-78
2021/12/15 08:00:19;;;;;;;27.00;24.83;;;;;;;;;;5092536;28;20201;-76
2021/12/15 08:05:50;;;;;;;23.97;22.77;;;;;;;;;;5092222;28;20216;-77
2021/12/15 08:08:18;;;;;;;23.97;22.77;;;;;;;;;;5092277;28;20193;-79
2021/12/15 08:10:46;;;;;;;22.97;21.77;;;;;;;;;;5092119;28;20221;-79
2021/12/15 08:13:15;;;;;;;20.57;19.57;;;;;;;;;;5092411;28;20194;-77
2021/12/15 08:15:42;;;;;;;24.10;22.80;;;;;;;;;;5092369;28;20194;-78
2021/12/15 08:18:08;;;;;;;24.63;23.43;;;;;;;;;;5092100;28;20189;-79
2021/12/15 08:20:36;;;;;;;23.83;22.73;;;;;;;;;;5092660;28;20239;-77
2021/12/15 08:23:03;;;;;;;21.47;20.47;;;;;;;;;;5096812;28;20193;-78
2021/12/15 08:25:31;;;;;;;20.47;19.57;;;;;;;;;;5096786;28;20227;-78
2021/12/15 08:28:00;;;;;;;24.33;23.10;;;;;;;;;;5096496;28;20193;-77
2021/12/15 08:30:28;;;;;;;23.13;22.13;;;;;;;;;;5096306;28;20601;-80
2021/12/15 08:32:56;;;;;;;22.57;21.50;;;;;;;;;;5096327;28;20223;-77
2021/12/15 08:35:24;;;;;;;21.17;20.27;;;;;;;;;;5095981;28;20205;-77
2021/12/15 08:37:52;;;;;;;21.30;20.40;;;;;;;;;;5096136;28;20225;-77
2021/12/15 08:40:19;;;;;;;21.93;20.73;;;;;;;;;;5095917;28;20690;-77
2021/12/15 08:42:46;;;;;;;20.03;19.13;;;;;;;;;;5096242;28;20193;-77
2021/12/15 08:45:14;;;;;;;19.87;19.03;;;;;;;;;;5095812;28;20197;-77
2021/12/15 08:47:41;;;;;;;19.87;18.97;;;;;;;;;;5095765;28;20672;-79
2021/12/15 08:50:10;;;;;;;20.57;19.63;;;;;;;;;;5095990;28;20221;-77
2021/12/15 08:52:37;;;;;;;20.53;19.63;;;;;;;;;;5095676;28;20727;-79
2021/12/15 08:55:05;;;;;;;22.10;21.10;;;;;;;;;;5095675;28;20189;-77
2021/12/15 08:57:32;;;;;;;23.07;21.97;;;;;;;;;;5095612;28;20573;-77
2021/12/15 08:59:58;;;;;;;24.70;23.50;;;;;;;;;;5095908;28;20198;-77
2021/12/15 09:02:26;;;;;;;23.57;22.47;;;;;;;;;;5095888;28;20251;-77
2021/12/15 09:04:53;;;;;;;23.07;21.97;;;;;;;;;;5095216;28;20234;-77
2021/12/15 09:07:20;;;;;;;29.70;28.30;;;;;;;;;;5095755;28;20197;-78
2021/12/15 09:09:48;;;;;;;25.00;23.80;;;;;;;;;;5095505;28;20198;-79
2021/12/15 09:12:18;;;;;;;25.23;23.93;;;;;;;;;;5095246;28;20229;-78
2021/12/15 09:14:45;;;;;;;22.40;21.30;;;;;;;;;;5095537;28;20198;-77
2021/12/15 09:17:12;;;;;;;24.50;23.00;;;;;;;;;;5095571;28;20205;-80
2021/12/15 09:19:40;;;;;;;25.13;23.70;;;;;;;;;;5095619;28;20194;-78
2021/12/15 09:22:07;;;;;;;20.47;19.57;;;;;;;;;;5095536;28;20231;-77
2021/12/15 09:24:34;;;;;;;22.50;21.40;;;;;;;;;;5095421;28;20243;-77
2021/12/15 09:27:01;;;;;;;21.77;20.77;;;;;;;;;;5095454;28;20243;-77
2021/12/15 09:29:28;;;;;;;31.80;30.03;;;;;;;;;;5095392;28;20190;-77
2021/12/15 09:31:55;;;;;;;31.40;29.70;;;;;;;;;;5094868;28;20225;-77
2021/12/15 09:34:22;;;;;;;31.53;29.93;;;;;;;;;;5094274;28;20254;-78
2021/12/15 09:36:51;;;;;;;29.20;27.57;;;;;;;;;;5094855;28;20598;-77
2021/12/15 09:39:19;;;;;;;29.13;27.63;;;;;;;;;;5094814;28;20248;-78
2021/12/15 09:41:46;;;;;;;31.20;29.50;;;;;;;;;;5095131;28;20197;-78
2021/12/15 09:44:16;;;;;;;28.60;27.00;;;;;;;;;;5095032;28;20227;-77
2021/12/15 09:47:09;;;;;;;29.47;27.57;;;;;;;;;;5094686;28;20682;-77
2021/12/15 10:03:37;;;;;;;31.03;29.23;;;;;;;;;;5095033;28;20227;-78
2021/12/15 10:06:19;;;;;;;34.03;32.13;;;;;;;;;;5094654;28;20185;-78
2021/12/15 10:11:52;;;;;;;31.00;29.33;;;;;;;;;;5094289;28;20228;-77
2021/12/15 10:17:30;;;;;;;32.20;29.90;;;;;;;;;;5094508;28;20697;-78
2021/12/15 10:20:00;;;;;;;31.93;29.90;;;;;;;;;;5094489;28;20190;-79
2021/12/15 10:22:34;;;;;;;23.30;22.27;;;;;;;;;;5093975;28;20205;-77
2021/12/15 10:25:05;;;;;;;23.33;22.20;;;;;;;;;;5094001;28;20243;-77
2021/12/15 10:27:34;;;;;;;30.47;28.50;;;;;;;;;;5093914;28;20197;-77
2021/12/15 10:30:02;;;;;;;20.80;19.90;;;;;;;;;;5094156;28;20193;-78
2021/12/15 10:32:29;;;;;;;32.30;30.70;;;;;;;;;;5093646;28;20317;-77
2021/12/15 10:35:00;;;;;;;28.93;27.37;;;;;;;;;;5094244;28;20275;-77
2021/12/15 10:37:28;;;;;;;30.23;28.73;;;;;;;;;;5094251;28;20190;-76
2021/12/15 10:40:09;;;;;;;31.97;29.70;;;;;;;;;;5094329;28;20673;-76
2021/12/15 10:42:38;;;;;;;31.77;29.87;;;;;;;;;;5095423;28;20190;-76
2021/12/15 10:45:06;;;;;;;30.27;28.80;;;;;;;;;;5093261;28;20592;-76
2021/12/15 10:47:40;;;;;;;29.70;28.10;;;;;;;;;;5094188;28;20193;-75
2021/12/15 10:50:11;;;;;;;32.10;30.40;;;;;;;;;;5094149;28;20643;-76
2021/12/15 10:52:49;;;;;;;30.53;29.03;;;;;;;;;;5093601;28;20209;-79
2021/12/15 10:55:16;;;;;;;33.33;31.40;;;;;;;;;;5093938;28;20635;-80
2021/12/15 10:57:45;;;;;;;25.87;24.73;;;;;;;;;;5094277;28;20671;-76
2021/12/15 11:00:13;;;;;;;25.73;24.57;;;;;;;;;;5093710;28;20624;-76
2021/12/15 11:02:40;;;;;;;26.30;25.20;;;;;;;;;;5093656;28;20263;-76
2021/12/15 11:05:07;;;;;;;26.40;25.20;;;;;;;;;;5093230;28;20226;-76
2021/12/15 11:07:36;;;;;;;26.47;25.27;;;;;;;;;;5093373;28;20239;-78
2021/12/15 11:10:06;;;;;;;26.43;25.13;;;;;;;;;;5093557;28;20229;-75
2021/12/15 11:12:34;;;;;;;23.70;22.63;;;;;;;;;;5093197;28;20229;-75
2021/12/15 11:15:05;;;;;;;24.53;23.33;;;;;;;;;;5092962;28;20659;-75
2021/12/15 11:17:32;;;;;;;29.07;27.67;;;;;;;;;;5093238;28;20251;-77
2021/12/15 11:20:00;;;;;;;26.70;25.40;;;;;;;;;;5093168;28;20190;-76
2021/12/15 11:22:49;;;;;;;28.03;26.60;;;;;;;;;;5092743;28;20620;-77
2021/12/15 11:25:20;;;;;;;25.53;24.33;;;;;;;;;;5093200;28;20186;-76
2021/12/15 11:27:49;;;;;;;28.07;26.73;;;;;;;;;;5093093;28;20277;-80
2021/12/15 11:30:22;;;;;;;29.87;28.27;;;;;;;;;;5093030;28;20200;-78
2021/12/15 11:32:50;;;;;;;29.77;28.07;;;;;;;;;;5092623;28;20217;-79
2021/12/15 11:35:19;;;;;;;24.57;23.37;;;;;;;;;;5092649;28;20656;-77
2021/12/15 11:37:47;;;;;;;23.60;22.50;;;;;;;;;;5092771;28;20672;-76
2021/12/15 11:40:15;;;;;;;23.20;21.90;;;;;;;;;;5092774;28;20228;-80
2021/12/15 11:42:42;;;;;;;23.30;22.20;;;;;;;;;;5092866;28;20202;-82
2021/12/15 11:45:10;;;;;;;25.03;23.83;;;;;;;;;;5092516;28;20255;-81
2021/12/15 11:47:38;;;;;;;22.67;21.67;;;;;;;;;;5092423;28;20620;-77
2021/12/15 11:50:10;;;;;;;23.83;22.73;;;;;;;;;;5092676;28;20198;-81
2021/12/15 11:52:41;;;;;;;24.87;23.60;;;;;;;;;;5092604;28;20257;-81
2021/12/15 11:55:21;;;;;;;23.07;22.00;;;;;;;;;;5092295;28;20675;-79
2021/12/15 11:57:48;;;;;;;22.93;21.93;;;;;;;;;;5092615;28;20190;-77
2021/12/15 12:00:16;;;;;;;21.97;20.97;;;;;;;;;;5092266;28;20194;-80
2021/12/15 12:02:46;;;;;;;23.67;22.03;;;;;;;;;;5092417;28;20343;-78
2021/12/15 12:05:14;;;;;;;23.73;22.40;;;;;;;;;;5092201;28;20291;-80
2021/12/15 12:07:44;;;;;;;21.87;20.87;;;;;;;;;;5092732;28;20194;-81
2021/12/15 12:10:13;;;;;;;23.53;22.43;;;;;;;;;;5092467;28;20643;-78
2021/12/15 12:12:51;;;;;;;23.00;21.90;;;;;;;;;;5092033;28;20703;-75
2021/12/15 12:15:19;;;;;;;23.80;22.67;;;;;;;;;;5092434;28;20201;-80
2021/12/15 12:17:49;;;;;;;23.50;22.40;;;;;;;;;;5091137;28;20560;-79
2021/12/15 12:20:17;;;;;;;25.37;24.17;;;;;;;;;;5092383;28;20194;-77
2021/12/15 12:22:46;;;;;;;25.60;24.17;;;;;;;;;;5092380;28;20198;-78
2021/12/15 12:25:15;;;;;;;36.10;34.30;;;;;;;;;;5092349;28;20194;-76
2021/12/15 12:27:42;;;;;;;25.87;24.57;;;;;;;;;;5092303;28;20198;-80
2021/12/15 12:30:11;;;;;;;23.30;22.20;;;;;;;;;;5092506;28;20198;-78
2021/12/15 12:32:38;;;;;;;25.67;24.27;;;;;;;;;;5092136;28;20262;-75
2021/12/15 12:35:08;;;;;;;33.60;31.60;;;;;;;;;;5092475;28;20194;-79
2021/12/15 12:37:35;;;;;;;30.80;29.10;;;;;;;;;;5091844;28;20549;-76
2021/12/15 12:40:08;;;;;;;21.70;20.70;;;;;;;;;;5092168;28;20676;-77
2021/12/15 12:42:37;;;;;;;21.40;20.40;;;;;;;;;;5092210;28;20186;-81
2021/12/15 12:45:11;;;;;;;22.87;21.23;;;;;;;;;;5091818;28;20229;-76
2021/12/15 12:47:44;;;;;;;25.70;24.30;;;;;;;;;;5091925;28;20664;-77
2021/12/15 13:01:34;;;;;;;19.97;18.87;;;;;;;;;;5092406;28;20279;-75
2021/12/15 13:04:09;;;;;;;18.60;17.80;;;;;;;;;;5091509;28;20221;-76
2021/12/15 13:06:41;;;;;;;19.00;18.20;;;;;;;;;;5091918;28;20254;-76
2021/12/15 13:09:10;;;;;;;20.00;18.90;;;;;;;;;;5094596;28;20609;-76
2021/12/15 13:11:39;;;;;;;20.70;19.70;;;;;;;;;;5095566;28;20263;-76
2021/12/15 13:14:08;;;;;;;21.80;20.80;;;;;;;;;;5095256;28;20233;-80
2021/12/15 13:16:41;;;;;;;20.83;19.93;;;;;;;;;;5095515;28;20217;-77
2021/12/15 13:19:17;;;;;;;20.10;19.20;;;;;;;;;;5095555;28;20185;-78
2021/12/15 13:21:55;;;;;;;20.90;19.90;;;;;;;;;;5095477;28;20216;-78
2021/12/15 13:30:03;;;;;;;21.17;20.07;;;;;;;;;;5095693;28;20258;-76
2021/12/15 13:32:33;;;;;;;20.53;19.53;;;;;;;;;;5095182;28;20303;-75
2021/12/15 13:34:59;;;;;;;23.43;22.23;;;;;;;;;;5094948;28;20197;-76
2021/12/15 13:37:45;;;;;;;19.73;18.73;;;;;;;;;;5095430;28;20194;-75
2021/12/15 13:40:13;;;;;;;18.90;18.10;;;;;;;;;;5095205;28;20193;-76
2021/12/15 13:42:51;;;;;;;20.87;19.67;;;;;;;;;;5094766;28;20729;-75
2021/12/15 13:45:28;;;;;;;18.93;18.13;;;;;;;;;;5095122;28;20634;-75
2021/12/15 13:47:55;;;;;;;18.10;17.30;;;;;;;;;;5094921;28;20251;-77
2021/12/15 13:50:23;;;;;;;20.20;19.10;;;;;;;;;;5094932;28;20273;-78
2021/12/15 13:52:54;;;;;;;19.93;18.93;;;;;;;;;;5094525;28;20222;-76
2021/12/15 13:55:24;;;;;;;19.60;18.67;;;;;;;;;;5094897;28;20186;-76
2021/12/15 13:57:53;;;;;;;34.77;21.47;;;;;;;;;;5095088;28;20224;-76
2021/12/15 14:00:22;;;;;;;19.43;18.23;;;;;;;;;;5094427;28;20194;-77
2021/12/15 14:02:57;;;;;;;19.43;18.53;;;;;;;;;;5094462;28;20254;-75
2021/12/15 14:05:26;;;;;;;19.10;18.30;;;;;;;;;;5094143;28;20240;-78
2021/12/15 14:07:53;;;;;;;18.90;18.10;;;;;;;;;;5094606;28;20200;-76
2021/12/15 14:10:39;;;;;;;21.23;20.23;;;;;;;;;;5094539;28;20252;-75
2021/12/15 14:13:07;;;;;;;20.67;19.13;;;;;;;;;;5094113;28;20278;-75
2021/12/15 14:15:45;;;;;;;22.13;21.03;;;;;;;;;;5094071;28;20202;-75
2021/12/15 14:18:13;;;;;;;21.27;20.27;;;;;;;;;;5094346;28;20229;-78
2021/12/15 14:20:41;;;;;;;22.63;21.53;;;;;;;;;;5093824;28;20254;-76
2021/12/15 14:23:10;;;;;;;20.77;19.87;;;;;;;;;;5094630;28;20277;-77
2021/12/15 14:25:37;;;;;;;24.67;23.37;;;;;;;;;;5094217;28;20577;-75
2021/12/15 14:28:09;;;;;;;20.90;19.90;;;;;;;;;;5093881;28;20232;-77
2021/12/15 14:30:36;;;;;;;20.23;19.37;;;;;;;;;;5094066;28;20194;-76
2021/12/15 14:33:03;;;;;;;19.80;19.00;;;;;;;;;;5094017;28;20600;-76
2021/12/15 14:35:30;;;;;;;23.53;22.40;;;;;;;;;;5093753;28;20197;-77
2021/12/15 14:37:57;;;;;;;22.00;21.00;;;;;;;;;;5093645;28;20694;-78
2021/12/15 14:40:23;;;;;;;22.37;20.53;;;;;;;;;;5093682;28;20197;-78
2021/12/15 14:42:50;;;;;;;22.57;21.00;;;;;;;;;;5093579;28;20292;-76
2021/12/15 14:45:18;;;;;;;20.57;19.67;;;;;;;;;;5093837;28;20225;-75
2021/12/15 14:47:45;;;;;;;20.53;19.37;;;;;;;;;;5093456;28;20225;-76
2021/12/15 14:50:14;;;;;;;19.23;18.37;;;;;;;;;;5093653;28;20189;-75
2021/12/15 14:52:43;;;;;;;20.40;19.27;;;;;;;;;;5093388;28;20222;-75
2021/12/15 14:55:11;;;;;;;23.67;22.20;;;;;;;;;;5093723;28;20267;-75
2021/12/15 14:57:38;;;;;;;23.60;21.97;;;;;;;;;;5093867;28;20193;-75
2021/12/15 15:00:07;;;;;;;20.40;19.50;;;;;;;;;;5093518;28;20262;-80
2021/12/15 15:02:35;;;;;;;20.60;19.70;;;;;;;;;;5093510;28;20205;-80
2021/12/15 15:05:04;;;;;;;18.67;17.87;;;;;;;;;;5093180;28;20242;-81
2021/12/15 15:07:32;;;;;;;19.40;18.50;;;;;;;;;;5093436;28;20698;-77
2021/12/15 15:10:00;;;;;;;19.60;18.70;;;;;;;;;;5093618;28;20564;-78
2021/12/15 15:12:28;;;;;;;20.27;18.97;;;;;;;;;;5093232;28;20239;-75
2021/12/15 15:14:59;;;;;;;20.80;19.70;;;;;;;;;;5093254;28;20285;-76
2021/12/15 15:17:29;;;;;;;20.30;19.30;;;;;;;;;;5093279;28;20185;-77
2021/12/15 15:19:59;;;;;;;19.03;18.13;;;;;;;;;;5093264;28;20189;-75
2021/12/15 15:22:28;;;;;;;18.83;18.00;;;;;;;;;;5092806;28;20197;-77
2021/12/15 15:24:56;;;;;;;18.30;17.50;;;;;;;;;;5092806;28;20202;-78
2021/12/15 15:27:23;;;;;;;29.27;27.33;;;;;;;;;;5093155;28;20205;-81
2021/12/15 15:29:51;;;;;;;24.70;18.70;;;;;;;;;;5093024;28;20197;-76
2021/12/15 15:32:21;;;;;;;19.30;18.40;;;;;;;;;;5092384;28;20694;-76
2021/12/15 15:34:49;;;;;;;18.33;17.33;;;;;;;;;;5092917;28;20721;-75
2021/12/15 15:37:19;;;;;;;21.33;20.00;;;;;;;;;;5092916;28;20288;-75
2021/12/15 15:39:46;;;;;;;17.67;16.90;;;;;;;;;;5092596;28;20188;-76
2021/12/15 15:42:20;;;;;;;19.97;18.97;;;;;;;;;;5092568;28;20688;-75